createdAt,value
2023-01-13T00:00:06.755Z,1.83
2023-01-13T00:02:37.809Z,1.90
2023-01-13T00:05:04.335Z,2.00
2023-01-13T00:07:30.650Z,1.80
2023-01-13T00:09:56.933Z,1.80
2023-01-13T00:12:23.198Z,1.80
2023-01-13T00:14:49.465Z,1.98
2023-01-13T00:17:15.772Z,1.70
2023-01-13T00:19:42.079Z,1.67
2023-01-13T00:22:08.419Z,2.88
2023-01-13T00:24:34.733Z,2.45
2023-01-13T00:27:00.998Z,1.70
2023-01-13T00:29:27.381Z,1.67
2023-01-13T00:31:53.729Z,1.73
2023-01-13T00:34:20.024Z,1.70
2023-01-13T00:36:46.292Z,1.75
2023-01-13T00:39:12.688Z,1.50
2023-01-13T00:41:57.557Z,1.70
2023-01-13T00:44:23.939Z,1.40
2023-01-13T00:46:50.289Z,1.48
2023-01-13T00:49:16.619Z,1.63
2023-01-13T00:51:42.914Z,1.52
2023-01-13T00:54:09.183Z,1.67
2023-01-13T00:56:40.189Z,1.58
2023-01-13T00:59:08.164Z,1.70
2023-01-13T01:01:34.648Z,2.15
2023-01-13T01:04:00.988Z,2.22
2023-01-13T01:06:27.614Z,1.70
2023-01-13T01:08:55.850Z,1.60
2023-01-13T01:11:26.136Z,2.55
2023-01-13T01:13:54.815Z,3.00
2023-01-13T01:16:23.191Z,1.65
2023-01-13T01:18:51.012Z,3.10
2023-01-13T01:21:18.973Z,1.50
2023-01-13T01:23:45.879Z,1.50
2023-01-13T01:26:14.994Z,1.58
2023-01-13T01:28:41.781Z,1.60
2023-01-13T01:31:09.468Z,1.50
2023-01-13T01:33:35.942Z,1.60
2023-01-13T01:36:03.195Z,1.40
2023-01-13T01:38:29.479Z,2.47
2023-01-13T01:40:56.130Z,1.55
2023-01-13T01:43:42.178Z,1.63
2023-01-13T01:46:08.446Z,1.75
2023-01-13T01:48:41.274Z,1.95
2023-01-13T01:51:12.707Z,1.58
2023-01-13T01:53:39.476Z,1.60
2023-01-13T01:56:08.302Z,2.90
2023-01-13T01:58:51.259Z,1.60
2023-01-13T02:01:18.711Z,1.70
2023-01-13T02:03:53.143Z,1.58
2023-01-13T02:06:19.470Z,1.30
2023-01-13T02:08:46.659Z,1.40
2023-01-13T02:11:52.489Z,1.13
2023-01-13T02:14:21.604Z,1.40
2023-01-13T02:17:10.565Z,1.33
2023-01-13T02:19:55.394Z,1.75
2023-01-13T02:23:02.922Z,2.40
2023-01-13T02:25:50.761Z,2.05
2023-01-13T02:29:13.577Z,1.20
2023-01-13T02:31:44.444Z,1.40
2023-01-13T02:34:17.298Z,1.10
2023-01-13T02:36:52.090Z,1.52
2023-01-13T02:39:27.791Z,1.77
2023-01-13T02:42:30.790Z,1.30
2023-01-13T02:45:10.927Z,1.30
2023-01-13T02:47:39.669Z,1.20
2023-01-13T02:50:10.488Z,1.48
2023-01-13T02:52:44.910Z,2.17
2023-01-13T02:55:16.790Z,1.48
2023-01-13T02:57:44.496Z,1.58
2023-01-13T03:00:13.104Z,1.42
2023-01-13T03:02:39.390Z,2.90
2023-01-13T03:05:06.423Z,1.30
2023-01-13T03:07:44.517Z,1.50
2023-01-13T03:10:40.776Z,1.40
2023-01-13T03:16:08.431Z,1.30
2023-01-13T03:18:50.869Z,1.58
2023-01-13T03:21:35.139Z,1.40
2023-01-13T03:24:04.613Z,1.33
2023-01-13T03:26:42.514Z,1.40
2023-01-13T03:29:24.422Z,1.20
2023-01-13T03:32:20.319Z,1.25
2023-01-13T03:34:57.364Z,1.75
2023-01-13T03:37:30.748Z,2.15
2023-01-13T03:40:07.079Z,1.52
2023-01-13T03:42:38.088Z,1.30
2023-01-13T03:45:17.769Z,1.13
2023-01-13T03:47:54.074Z,1.30
2023-01-13T03:50:24.430Z,3.20
2023-01-13T03:52:56.552Z,1.23
2023-01-13T03:55:28.630Z,1.10
2023-01-13T03:58:03.694Z,1.15
2023-01-13T04:00:36.844Z,2.75
2023-01-13T04:03:15.104Z,1.05
2023-01-13T04:05:47.154Z,1.17
2023-01-13T04:08:21.518Z,1.00
2023-01-13T04:10:57.612Z,1.63
2023-01-13T04:13:28.705Z,1.20
2023-01-13T04:15:55.061Z,1.50
2023-01-13T04:18:28.358Z,2.72
2023-01-13T04:20:56.832Z,1.30
2023-01-13T05:55:27.331Z,1.90
2023-01-13T05:57:53.420Z,2.63
2023-01-13T06:00:19.928Z,1.33
2023-01-13T06:02:46.057Z,1.17
2023-01-13T06:05:12.150Z,1.55
2023-01-13T06:07:38.247Z,1.23
2023-01-13T06:10:04.718Z,2.90
2023-01-13T06:12:30.891Z,3.78
2023-01-13T06:14:56.971Z,2.00
2023-01-13T06:17:23.059Z,1.50
2023-01-13T06:19:49.195Z,2.45
2023-01-13T06:22:17.964Z,1.50
2023-01-13T06:24:47.160Z,2.83
2023-01-13T06:27:13.330Z,2.20
2023-01-13T06:29:39.414Z,1.30
2023-01-13T06:32:13.077Z,1.88
2023-01-13T06:34:41.112Z,1.42
2023-01-13T06:37:07.223Z,1.55
2023-01-13T06:39:35.947Z,1.45
2023-01-13T06:42:21.917Z,1.70
2023-01-13T06:44:49.159Z,2.03
2023-01-13T06:47:15.255Z,2.42
2023-01-13T06:49:41.343Z,1.65
2023-01-13T06:52:07.447Z,1.35
2023-01-13T06:54:34.700Z,1.50
2023-01-13T06:57:02.304Z,1.77
2023-01-13T06:59:28.663Z,1.75
2023-01-13T07:01:54.962Z,1.77
2023-01-13T07:04:21.274Z,1.70
2023-01-13T07:06:47.369Z,3.83
2023-01-13T07:09:13.464Z,1.52
2023-01-13T07:11:39.593Z,2.67
2023-01-13T07:14:24.071Z,1.92
2023-01-13T07:16:52.204Z,2.03
2023-01-13T07:19:23.317Z,2.33
2023-01-13T07:21:51.762Z,3.22
2023-01-13T07:24:18.243Z,1.50
2023-01-13T07:26:44.547Z,1.73
2023-01-13T07:29:10.954Z,1.50
2023-01-13T07:31:37.253Z,2.28
2023-01-13T07:34:04.192Z,2.08
2023-01-13T07:36:30.326Z,2.08
2023-01-13T07:38:56.869Z,1.63
2023-01-13T07:41:41.494Z,2.65
2023-01-13T07:44:08.318Z,1.27
2023-01-13T07:46:34.494Z,3.53
2023-01-13T07:49:00.592Z,1.77
2023-01-13T07:51:26.735Z,1.60
2023-01-13T07:53:52.849Z,1.40
2023-01-13T07:56:19.459Z,9.13
2023-01-13T07:58:50.385Z,1.73
2023-01-13T08:01:17.846Z,1.60
2023-01-13T08:03:44.716Z,2.88
2023-01-13T08:06:11.680Z,1.80
2023-01-13T08:08:38.693Z,1.45
2023-01-13T08:11:07.657Z,1.77
2023-01-13T08:13:34.399Z,1.60
2023-01-13T08:16:04.185Z,3.53
2023-01-13T08:18:32.154Z,1.75
2023-01-13T08:21:02.899Z,2.22
2023-01-13T08:23:29.101Z,1.42
2023-01-13T08:25:55.231Z,1.95
2023-01-13T08:28:23.965Z,1.98
2023-01-13T08:30:50.364Z,1.90
2023-01-13T08:33:16.651Z,1.65
2023-01-13T08:35:42.795Z,2.47
2023-01-13T08:38:09.261Z,1.60
2023-01-13T08:40:35.512Z,1.50
2023-01-13T08:43:01.797Z,2.10
2023-01-13T08:45:27.924Z,2.58
2023-01-13T08:47:54.080Z,1.40
2023-01-13T08:50:20.679Z,2.35
2023-01-13T08:52:46.941Z,1.30
2023-01-13T08:55:13.040Z,1.48
2023-01-13T08:57:39.161Z,2.42
2023-01-13T09:00:07.318Z,1.50
2023-01-13T09:02:33.916Z,1.65
2023-01-13T09:05:04.560Z,1.30
2023-01-13T09:07:31.502Z,1.50
2023-01-13T09:09:57.916Z,1.38
2023-01-13T09:12:43.161Z,1.65
2023-01-13T09:15:10.299Z,1.40
2023-01-13T09:17:36.417Z,1.58
2023-01-13T09:20:02.509Z,1.40
2023-01-13T09:22:28.602Z,1.35
2023-01-13T09:24:55.430Z,1.38
2023-01-13T09:27:22.432Z,2.28
2023-01-13T09:29:48.809Z,2.15
2023-01-13T09:32:15.230Z,1.75
2023-01-13T09:35:00.105Z,2.15
2023-01-13T09:37:28.143Z,4.20
2023-01-13T09:39:54.447Z,2.63
2023-01-13T09:42:50.111Z,1.63
2023-01-13T09:45:22.666Z,2.08
2023-01-13T09:48:17.116Z,2.80
2023-01-13T09:50:54.365Z,4.22
2023-01-13T09:53:26.217Z,2.72
2023-01-13T09:55:53.058Z,2.72
2023-01-13T09:58:19.833Z,2.35
2023-01-13T10:00:50.633Z,2.17
2023-01-13T10:03:28.154Z,1.52
2023-01-13T10:06:00.038Z,1.35
2023-01-13T10:08:29.874Z,1.85
2023-01-13T10:10:59.189Z,1.40
2023-01-13T10:13:31.254Z,1.95
2023-01-13T10:16:05.391Z,2.53
2023-01-13T10:19:03.539Z,2.35
2023-01-13T10:21:57.838Z,2.88
2023-01-13T10:24:53.612Z,1.73
2023-01-13T10:27:41.892Z,3.03
2023-01-13T10:30:31.291Z,1.98
2023-01-13T10:32:59.800Z,2.38
2023-01-13T10:36:01.080Z,1.92
2023-01-13T10:38:39.362Z,4.60
2023-01-13T10:41:18.119Z,2.22
2023-01-13T10:44:08.448Z,2.55
2023-01-13T10:46:52.890Z,2.00
2023-01-13T10:49:36.485Z,1.88
2023-01-13T10:52:04.575Z,4.18
2023-01-13T10:54:31.154Z,3.08
2023-01-13T10:57:13.963Z,2.50
2023-01-13T10:59:40.095Z,2.95
2023-01-13T11:02:24.291Z,1.55
2023-01-13T11:04:53.954Z,3.20
2023-01-13T11:07:30.452Z,4.03
2023-01-13T11:10:21.190Z,3.13
2023-01-13T11:12:58.566Z,1.60
2023-01-13T11:15:53.966Z,3.92
2023-01-13T11:19:02.267Z,3.13
2023-01-13T11:21:49.790Z,11.32
2023-01-13T11:24:24.050Z,6.55
2023-01-13T11:27:00.614Z,4.28
2023-01-13T11:29:49.361Z,2.47
2023-01-13T11:32:19.993Z,2.83
2023-01-13T11:34:52.663Z,5.85
2023-01-13T11:37:27.560Z,2.38
2023-01-13T11:40:18.789Z,1.85
2023-01-13T11:43:18.000Z,3.15
2023-01-13T11:45:49.355Z,2.63
2023-01-13T11:48:19.763Z,5.45
2023-01-13T11:51:00.796Z,2.58
2023-01-13T11:54:04.627Z,2.25
2023-01-13T11:57:03.925Z,2.38
2023-01-13T11:59:58.822Z,3.13
2023-01-13T12:02:27.915Z,2.30
2023-01-13T12:05:31.491Z,2.75
2023-01-13T12:08:18.243Z,2.67
2023-01-13T12:11:10.941Z,7.03
2023-01-13T12:14:02.960Z,1.70
2023-01-13T12:16:30.877Z,1.60
2023-01-13T12:19:10.476Z,2.65
2023-01-13T12:21:56.975Z,3.22
2023-01-13T12:24:30.072Z,4.55
2023-01-13T12:27:01.047Z,2.58
2023-01-13T12:29:36.291Z,4.03
2023-01-13T12:32:06.815Z,4.25
2023-01-13T12:34:44.913Z,3.15
2023-01-13T12:37:44.959Z,4.15
2023-01-13T12:40:47.030Z,3.35
2023-01-13T12:43:38.423Z,4.50
2023-01-13T12:46:19.646Z,6.85
2023-01-13T12:48:56.724Z,4.35
2023-01-13T12:51:27.927Z,4.40
2023-01-13T12:53:55.518Z,2.00
2023-01-13T12:56:27.368Z,6.45
2023-01-13T12:59:21.559Z,5.00
2023-01-13T13:01:49.855Z,2.58
2023-01-13T13:04:38.514Z,6.05
2023-01-13T13:07:14.732Z,6.15
2023-01-13T13:09:45.781Z,4.75
2023-01-13T13:13:00.440Z,3.40
2023-01-13T13:15:36.397Z,5.03
2023-01-13T13:18:18.839Z,5.25
2023-01-13T13:21:04.635Z,4.43
2023-01-13T13:23:35.465Z,6.30
2023-01-13T13:26:07.307Z,6.60
2023-01-13T13:28:41.219Z,3.65
2023-01-13T13:31:32.012Z,3.38
2023-01-13T13:34:16.433Z,4.40
2023-01-13T13:37:07.685Z,3.45
2023-01-13T13:40:00.938Z,6.82
2023-01-13T13:42:47.504Z,2.95
2023-01-13T13:45:40.298Z,3.58
2023-01-13T13:48:25.282Z,7.18
2023-01-13T13:50:59.256Z,7.32
2023-01-13T13:53:32.965Z,3.67
2023-01-13T13:56:01.953Z,3.67
2023-01-13T13:58:31.389Z,4.07
2023-01-13T14:00:58.388Z,3.35
2023-01-13T14:03:38.363Z,3.25
2023-01-13T14:06:07.640Z,5.38
2023-01-13T14:08:36.798Z,5.82
2023-01-13T14:11:25.275Z,5.25
2023-01-13T14:14:01.985Z,4.32
2023-01-13T14:16:28.102Z,6.38
2023-01-13T14:18:54.790Z,2.25
2023-01-13T14:21:30.801Z,4.22
2023-01-13T14:24:21.187Z,3.75
2023-01-13T14:26:51.983Z,2.63
2023-01-13T14:29:22.753Z,4.38
2023-01-13T14:31:51.245Z,4.78
2023-01-13T14:34:32.527Z,6.80
2023-01-13T14:37:00.610Z,6.63
2023-01-13T14:39:37.556Z,5.57
2023-01-13T14:42:04.800Z,5.00
2023-01-13T14:44:36.486Z,6.53
2023-01-13T14:47:18.046Z,3.67
2023-01-13T14:50:02.541Z,3.88
2023-01-13T14:52:31.660Z,3.35
2023-01-13T14:55:06.936Z,6.18
2023-01-13T14:57:36.348Z,8.25
2023-01-13T15:00:14.438Z,5.03
2023-01-13T15:02:53.496Z,7.15
2023-01-13T15:05:19.610Z,2.90
2023-01-13T15:07:49.801Z,4.65
2023-01-13T15:10:22.443Z,3.92
2023-01-13T15:12:51.656Z,5.18
2023-01-13T15:15:23.832Z,4.75
2023-01-13T15:17:50.171Z,4.22
2023-01-13T15:20:19.209Z,5.85
2023-01-13T15:22:45.954Z,6.70
2023-01-13T15:25:12.117Z,4.28
2023-01-13T15:27:38.580Z,4.50
2023-01-13T15:30:14.886Z,5.18
2023-01-13T15:32:41.321Z,4.30
2023-01-13T15:35:08.671Z,2.80
2023-01-13T15:37:36.011Z,3.55
2023-01-13T15:40:02.160Z,5.68
2023-01-13T15:42:47.086Z,5.15
2023-01-13T15:45:31.806Z,7.50
2023-01-13T15:47:59.666Z,5.72
2023-01-13T15:50:26.549Z,5.05
2023-01-13T15:52:52.653Z,4.13
2023-01-13T15:55:18.847Z,6.45
2023-01-13T15:57:49.763Z,3.58
2023-01-13T16:00:20.227Z,6.07
2023-01-13T16:02:46.603Z,4.40
2023-01-13T16:05:12.837Z,5.68
2023-01-13T16:07:39.095Z,5.32
2023-01-13T16:10:08.492Z,6.15
2023-01-13T16:12:34.592Z,5.40
2023-01-13T16:15:00.709Z,4.90
2023-01-13T16:17:30.342Z,5.90
2023-01-13T16:19:56.466Z,5.07
2023-01-13T16:22:22.592Z,6.80
2023-01-13T16:24:48.703Z,8.75
2023-01-13T16:27:22.344Z,3.88
2023-01-13T16:29:49.740Z,5.10
2023-01-13T16:32:15.885Z,6.57
2023-01-13T16:34:42.448Z,8.40
2023-01-13T16:37:21.179Z,3.97
2023-01-13T16:39:47.923Z,5.43
2023-01-13T16:42:14.688Z,3.83
2023-01-13T16:44:40.957Z,4.32
2023-01-13T16:47:17.143Z,3.95
2023-01-13T16:49:44.259Z,5.85
2023-01-13T16:52:10.597Z,4.28
2023-01-13T16:54:37.040Z,4.05
2023-01-13T16:57:03.273Z,3.85
2023-01-13T16:59:29.369Z,5.13
2023-01-13T17:01:55.534Z,4.38
2023-01-13T17:04:23.586Z,5.80
2023-01-13T17:07:06.038Z,4.25
2023-01-13T17:09:32.342Z,2.67
2023-01-13T17:11:58.451Z,4.50
2023-01-13T17:14:25.056Z,3.97
2023-01-13T17:16:54.768Z,7.15
2023-01-13T17:19:22.055Z,6.25
2023-01-13T17:21:48.172Z,2.03
2023-01-13T17:24:14.314Z,4.05
2023-01-13T17:26:47.617Z,6.25
2023-01-13T17:29:16.863Z,3.78
2023-01-13T17:31:43.341Z,4.57
2023-01-13T17:34:12.201Z,5.78
2023-01-13T17:36:38.298Z,6.18
2023-01-13T17:39:04.666Z,6.15
2023-01-13T17:41:30.911Z,6.13
2023-01-13T17:43:57.005Z,4.57
2023-01-13T17:46:23.323Z,6.07
2023-01-13T17:48:51.205Z,6.03
2023-01-13T17:51:18.583Z,4.38
2023-01-13T17:53:45.649Z,3.63
2023-01-13T17:56:13.510Z,4.65
2023-01-13T17:58:41.653Z,3.72
2023-01-13T18:01:13.892Z,6.88
2023-01-13T18:03:40.125Z,4.07
2023-01-13T18:06:08.584Z,6.40
2023-01-13T18:08:34.795Z,5.30
2023-01-13T18:11:02.859Z,3.53
2023-01-13T18:13:31.385Z,4.75
2023-01-13T18:16:04.584Z,7.13
2023-01-13T18:18:30.686Z,6.88
2023-01-13T18:21:15.271Z,5.35
2023-01-13T18:23:59.871Z,4.38
2023-01-13T18:26:44.369Z,4.10
2023-01-13T18:29:10.499Z,5.30
2023-01-13T18:31:36.643Z,5.93
2023-01-13T18:34:02.732Z,8.18
2023-01-13T18:36:28.839Z,7.47
2023-01-13T18:38:55.640Z,6.70
2023-01-13T18:41:40.745Z,4.70
2023-01-13T18:44:06.899Z,4.32
2023-01-13T18:46:33.077Z,3.20
2023-01-13T18:48:59.971Z,6.95
2023-01-13T18:51:26.062Z,8.40
2023-01-13T18:53:52.234Z,7.55
2023-01-13T18:56:18.347Z,7.05
2023-01-13T18:58:51.532Z,7.95
2023-01-13T19:01:25.721Z,6.60
2023-01-13T19:03:56.703Z,7.78
2023-01-13T19:06:25.787Z,6.38
2023-01-13T19:08:53.471Z,6.07
2023-01-13T19:11:21.813Z,8.43
2023-01-13T19:13:48.719Z,6.43
2023-01-13T19:16:15.515Z,7.00
2023-01-13T19:18:41.712Z,9.18
2023-01-13T19:21:08.316Z,5.25
2023-01-13T19:23:34.883Z,6.47
2023-01-13T19:26:02.799Z,5.97
2023-01-13T19:28:29.203Z,3.22
2023-01-13T19:31:00.464Z,7.97
2023-01-13T19:33:29.207Z,8.02
2023-01-13T19:35:55.861Z,10.88
2023-01-13T19:38:22.958Z,7.85
2023-01-13T19:40:54.576Z,7.25
2023-01-13T19:43:39.511Z,6.00
2023-01-13T19:46:05.790Z,4.30
2023-01-13T19:48:31.903Z,7.43
2023-01-13T19:50:59.482Z,5.47
2023-01-13T19:53:25.689Z,7.55
2023-01-13T19:55:51.858Z,6.57
2023-01-13T19:58:19.840Z,6.20
2023-01-13T20:00:49.755Z,5.28
2023-01-13T20:03:17.637Z,9.20
2023-01-13T20:05:43.726Z,7.65
2023-01-13T20:08:10.530Z,2.47
2023-01-13T20:10:37.693Z,5.68
2023-01-13T20:13:04.804Z,5.60
2023-01-13T20:15:31.602Z,5.95
2023-01-13T20:17:58.135Z,3.83
2023-01-13T20:20:27.470Z,4.45
2023-01-13T20:22:53.628Z,5.45
2023-01-13T20:25:19.939Z,5.18
2023-01-13T20:27:47.352Z,4.93
2023-01-13T20:30:14.497Z,4.05
2023-01-13T20:32:41.964Z,8.23
2023-01-13T20:35:08.754Z,6.55
2023-01-13T20:37:37.550Z,6.32
2023-01-13T20:40:05.469Z,4.60
2023-01-13T20:42:32.928Z,4.20
2023-01-13T20:45:00.519Z,8.88
2023-01-13T20:47:28.566Z,3.72
2023-01-13T20:49:54.700Z,6.28
2023-01-13T20:52:20.850Z,5.43
2023-01-13T20:54:46.983Z,9.23
2023-01-13T20:57:13.169Z,5.30
2023-01-13T20:59:39.906Z,8.27
2023-01-13T21:02:10.731Z,3.70
2023-01-13T21:04:36.835Z,6.50
2023-01-13T21:07:02.953Z,4.80
2023-01-13T21:09:29.334Z,5.15
2023-01-13T21:12:13.852Z,9.13
2023-01-13T21:14:58.363Z,6.75
2023-01-13T21:17:43.691Z,5.18
2023-01-13T21:20:11.821Z,8.32
2023-01-13T21:22:39.021Z,8.30
2023-01-13T21:25:06.434Z,7.07
2023-01-13T21:27:33.051Z,5.38
2023-01-13T21:29:59.156Z,4.53
2023-01-13T21:32:25.291Z,7.70
2023-01-13T21:34:51.431Z,5.50
2023-01-13T21:37:18.634Z,8.50
2023-01-13T21:39:44.923Z,6.13
2023-01-13T21:42:33.483Z,6.03
2023-01-13T21:45:18.420Z,3.42
2023-01-13T21:47:50.525Z,4.50
2023-01-13T21:50:19.987Z,3.92
2023-01-13T21:52:47.257Z,5.07
2023-01-13T21:55:20.028Z,7.03
2023-01-13T21:57:47.723Z,4.45
2023-01-13T22:00:14.956Z,3.80
2023-01-13T22:02:41.263Z,4.97
2023-01-13T22:05:09.291Z,5.38
2023-01-13T22:07:36.407Z,6.20
2023-01-13T22:10:03.614Z,3.60
2023-01-13T22:12:30.133Z,5.82
2023-01-13T22:14:56.475Z,8.45
2023-01-13T22:17:25.741Z,5.97
2023-01-13T22:19:53.948Z,5.18
2023-01-13T22:22:21.849Z,6.55
2023-01-13T22:24:49.711Z,3.30
2023-01-13T22:27:19.109Z,4.32
2023-01-13T22:29:46.239Z,4.07
2023-01-13T22:32:12.507Z,4.43
2023-01-13T22:34:38.851Z,2.47
2023-01-13T22:37:05.212Z,6.43
2023-01-13T22:39:31.652Z,6.45
2023-01-13T22:41:57.757Z,3.88
2023-01-13T22:44:24.115Z,5.28
2023-01-13T22:46:50.455Z,4.97
2023-01-13T22:49:17.488Z,4.43
2023-01-13T22:51:43.883Z,5.03
2023-01-13T22:54:10.454Z,5.95
2023-01-13T22:56:36.904Z,10.77
2023-01-13T22:59:04.918Z,5.15
2023-01-13T23:01:33.608Z,6.35
2023-01-13T23:04:00.490Z,3.75
2023-01-13T23:06:28.079Z,6.60
2023-01-13T23:08:55.086Z,3.03
2023-01-13T23:11:24.051Z,4.15
2023-01-13T23:13:56.538Z,4.13
2023-01-13T23:16:22.707Z,4.55
2023-01-13T23:18:49.305Z,5.75
2023-01-13T23:21:24.413Z,3.92
2023-01-13T23:23:50.796Z,4.30
2023-01-13T23:26:18.005Z,2.75
2023-01-13T23:28:44.325Z,4.93
2023-01-13T23:31:13.428Z,3.30
2023-01-13T23:33:41.472Z,3.05
2023-01-13T23:36:09.289Z,6.43
2023-01-13T23:38:35.439Z,3.65
2023-01-13T23:41:05.917Z,3.72
2023-01-13T23:43:32.022Z,2.70
2023-01-13T23:46:05.929Z,4.00
2023-01-13T23:48:33.130Z,5.18
2023-01-13T23:51:01.627Z,3.28
2023-01-13T23:53:33.475Z,6.15
2023-01-13T23:56:00.896Z,4.53
2023-01-13T23:58:28.332Z,4.20
